sensor_id;sensor_type;location;lat;lon;timestamp;P1;durP1;ratioP1;P2;durP2;ratioP2
14789;SDS011;7486;51.010;10.366;2023-11-21T00:00:08;4.70;;;2.63;;
14789;SDS011;7486;51.010;10.366;2023-11-21T00:02:56;3.30;;;2.43;;
14789;SDS011;7486;51.010;10.366;2023-11-21T00:05:42;5.13;;;2.83;;
14789;SDS011;7486;51.010;10.366;2023-11-21T00:08:27;4.63;;;2.50;;
14789;SDS011;7486;51.010;10.366;2023-11-21T00:11:13;7.50;;;2.90;;
14789;SDS011;7486;51.010;10.366;2023-11-21T00:13:59;3.93;;;2.70;;
14789;SDS011;7486;51.010;10.366;2023-11-21T00:16:44;4.00;;;2.63;;
14789;SDS011;7486;51.010;10.366;2023-11-21T00:19:29;2.60;;;2.40;;
14789;SDS011;7486;51.010;10.366;2023-11-21T00:22:15;3.90;;;2.50;;
14789;SDS011;7486;51.010;10.366;2023-11-21T00:25:01;4.70;;;2.80;;
14789;SDS011;7486;51.010;10.366;2023-11-21T00:27:47;5.03;;;2.63;;
14789;SDS011;7486;51.010;10.366;2023-11-21T00:30:32;3.10;;;2.70;;
14789;SDS011;7486;51.010;10.366;2023-11-21T00:33:17;4.20;;;2.80;;
14789;SDS011;7486;51.010;10.366;2023-11-21T00:36:03;4.63;;;2.73;;
14789;SDS011;7486;51.010;10.366;2023-11-21T00:38:48;2.60;;;2.40;;
14789;SDS011;7486;51.010;10.366;2023-11-21T00:41:34;3.77;;;2.30;;
14789;SDS011;7486;51.010;10.366;2023-11-21T00:44:19;3.97;;;2.27;;
14789;SDS011;7486;51.010;10.366;2023-11-21T00:47:05;2.93;;;2.50;;
14789;SDS011;7486;51.010;10.366;2023-11-21T00:49:50;4.10;;;2.53;;
14789;SDS011;7486;51.010;10.366;2023-11-21T00:52:36;3.93;;;2.80;;
14789;SDS011;7486;51.010;10.366;2023-11-21T00:55:22;3.17;;;2.60;;
14789;SDS011;7486;51.010;10.366;2023-11-21T00:58:08;4.60;;;2.70;;
14789;SDS011;7486;51.010;10.366;2023-11-21T01:00:54;5.83;;;2.67;;
14789;SDS011;7486;51.010;10.366;2023-11-21T01:03:40;5.10;;;2.70;;
14789;SDS011;7486;51.010;10.366;2023-11-21T01:06:25;3.73;;;2.77;;
14789;SDS011;7486;51.010;10.366;2023-11-21T01:09:11;3.97;;;3.00;;
14789;SDS011;7486;51.010;10.366;2023-11-21T01:11:56;3.80;;;2.63;;
14789;SDS011;7486;51.010;10.366;2023-11-21T01:14:41;4.50;;;2.80;;
14789;SDS011;7486;51.010;10.366;2023-11-21T01:17:27;4.73;;;2.90;;
14789;SDS011;7486;51.010;10.366;2023-11-21T01:20:12;4.47;;;3.20;;
14789;SDS011;7486;51.010;10.366;2023-11-21T01:22:59;3.73;;;3.10;;
14789;SDS011;7486;51.010;10.366;2023-11-21T01:25:45;3.87;;;3.37;;
14789;SDS011;7486;51.010;10.366;2023-11-21T01:28:30;4.77;;;3.23;;
14789;SDS011;7486;51.010;10.366;2023-11-21T01:31:16;3.80;;;3.10;;
14789;SDS011;7486;51.010;10.366;2023-11-21T01:34:01;5.00;;;3.80;;
14789;SDS011;7486;51.010;10.366;2023-11-21T01:36:47;5.10;;;3.30;;
14789;SDS011;7486;51.010;10.366;2023-11-21T01:39:32;4.50;;;3.50;;
14789;SDS011;7486;51.010;10.366;2023-11-21T01:42:18;3.90;;;3.50;;
14789;SDS011;7486;51.010;10.366;2023-11-21T01:45:03;4.50;;;3.70;;
14789;SDS011;7486;51.010;10.366;2023-11-21T01:47:49;5.47;;;3.30;;
14789;SDS011;7486;51.010;10.366;2023-11-21T01:50:35;5.63;;;3.83;;
14789;SDS011;7486;51.010;10.366;2023-11-21T01:53:21;6.67;;;3.90;;
14789;SDS011;7486;51.010;10.366;2023-11-21T01:56:09;5.00;;;3.57;;
14789;SDS011;7486;51.010;10.366;2023-11-21T01:58:55;5.17;;;3.40;;
14789;SDS011;7486;51.010;10.366;2023-11-21T02:01:41;4.50;;;3.40;;
14789;SDS011;7486;51.010;10.366;2023-11-21T02:04:26;3.80;;;3.17;;
14789;SDS011;7486;51.010;10.366;2023-11-21T02:07:13;5.00;;;4.07;;
14789;SDS011;7486;51.010;10.366;2023-11-21T02:09:59;6.13;;;4.00;;
14789;SDS011;7486;51.010;10.366;2023-11-21T02:12:44;4.73;;;3.50;;
14789;SDS011;7486;51.010;10.366;2023-11-21T02:15:29;6.53;;;3.73;;
14789;SDS011;7486;51.010;10.366;2023-11-21T02:18:15;5.77;;;4.00;;
14789;SDS011;7486;51.010;10.366;2023-11-21T02:21:00;4.90;;;3.83;;
14789;SDS011;7486;51.010;10.366;2023-11-21T02:23:46;4.20;;;3.67;;
14789;SDS011;7486;51.010;10.366;2023-11-21T02:26:32;4.00;;;3.27;;
14789;SDS011;7486;51.010;10.366;2023-11-21T02:29:18;5.70;;;3.50;;
14789;SDS011;7486;51.010;10.366;2023-11-21T02:32:04;5.10;;;3.27;;
14789;SDS011;7486;51.010;10.366;2023-11-21T02:34:54;5.50;;;3.60;;
14789;SDS011;7486;51.010;10.366;2023-11-21T02:37:40;4.73;;;3.70;;
14789;SDS011;7486;51.010;10.366;2023-11-21T02:40:26;4.07;;;3.40;;
14789;SDS011;7486;51.010;10.366;2023-11-21T02:43:11;3.77;;;3.47;;
14789;SDS011;7486;51.010;10.366;2023-11-21T02:45:57;8.23;;;4.10;;
14789;SDS011;7486;51.010;10.366;2023-11-21T02:48:42;3.90;;;3.40;;
14789;SDS011;7486;51.010;10.366;2023-11-21T02:51:28;5.57;;;4.03;;
14789;SDS011;7486;51.010;10.366;2023-11-21T02:54:13;5.30;;;4.30;;
14789;SDS011;7486;51.010;10.366;2023-11-21T02:57:01;5.07;;;3.73;;
14789;SDS011;7486;51.010;10.366;2023-11-21T02:59:47;6.00;;;4.23;;
14789;SDS011;7486;51.010;10.366;2023-11-21T03:02:33;4.27;;;3.67;;
14789;SDS011;7486;51.010;10.366;2023-11-21T03:05:19;4.37;;;3.37;;
14789;SDS011;7486;51.010;10.366;2023-11-21T03:08:05;6.17;;;3.70;;
14789;SDS011;7486;51.010;10.366;2023-11-21T03:10:50;5.17;;;3.57;;
14789;SDS011;7486;51.010;10.366;2023-11-21T03:13:35;5.07;;;3.83;;
14789;SDS011;7486;51.010;10.366;2023-11-21T03:16:21;7.93;;;4.43;;
14789;SDS011;7486;51.010;10.366;2023-11-21T03:19:06;5.57;;;4.27;;
14789;SDS011;7486;51.010;10.366;2023-11-21T03:21:51;4.27;;;3.83;;
14789;SDS011;7486;51.010;10.366;2023-11-21T03:24:37;6.50;;;4.23;;
14789;SDS011;7486;51.010;10.366;2023-11-21T03:27:23;4.43;;;3.70;;
14789;SDS011;7486;51.010;10.366;2023-11-21T03:30:09;6.33;;;4.03;;
14789;SDS011;7486;51.010;10.366;2023-11-21T03:32:55;5.37;;;4.20;;
14789;SDS011;7486;51.010;10.366;2023-11-21T03:35:40;4.50;;;3.93;;
14789;SDS011;7486;51.010;10.366;2023-11-21T03:38:26;7.07;;;4.50;;
14789;SDS011;7486;51.010;10.366;2023-11-21T03:41:11;8.70;;;5.00;;
14789;SDS011;7486;51.010;10.366;2023-11-21T03:43:56;6.53;;;4.80;;
14789;SDS011;7486;51.010;10.366;2023-11-21T03:46:42;6.23;;;4.57;;
14789;SDS011;7486;51.010;10.366;2023-11-21T03:49:29;6.67;;;4.70;;
14789;SDS011;7486;51.010;10.366;2023-11-21T03:52:15;6.27;;;5.50;;
14789;SDS011;7486;51.010;10.366;2023-11-21T03:55:01;7.83;;;5.47;;
14789;SDS011;7486;51.010;10.366;2023-11-21T03:57:48;6.60;;;5.00;;
14789;SDS011;7486;51.010;10.366;2023-11-21T04:00:33;7.10;;;4.73;;
14789;SDS011;7486;51.010;10.366;2023-11-21T04:03:18;6.20;;;4.40;;
14789;SDS011;7486;51.010;10.366;2023-11-21T04:06:04;7.87;;;5.13;;
14789;SDS011;7486;51.010;10.366;2023-11-21T04:08:49;5.40;;;4.90;;
14789;SDS011;7486;51.010;10.366;2023-11-21T04:11:35;7.53;;;4.70;;
14789;SDS011;7486;51.010;10.366;2023-11-21T04:14:20;6.23;;;5.00;;
14789;SDS011;7486;51.010;10.366;2023-11-21T04:17:06;7.23;;;4.93;;
14789;SDS011;7486;51.010;10.366;2023-11-21T04:19:52;8.40;;;5.80;;
14789;SDS011;7486;51.010;10.366;2023-11-21T04:22:40;11.33;;;5.57;;
14789;SDS011;7486;51.010;10.366;2023-11-21T04:25:27;9.53;;;5.93;;
14789;SDS011;7486;51.010;10.366;2023-11-21T04:28:12;9.47;;;5.73;;
14789;SDS011;7486;51.010;10.366;2023-11-21T04:30:58;6.93;;;5.73;;
14789;SDS011;7486;51.010;10.366;2023-11-21T04:33:43;7.63;;;5.47;;
14789;SDS011;7486;51.010;10.366;2023-11-21T04:36:29;7.60;;;6.10;;
14789;SDS011;7486;51.010;10.366;2023-11-21T04:39:14;7.90;;;5.77;;
14789;SDS011;7486;51.010;10.366;2023-11-21T04:42:00;7.97;;;5.07;;
14789;SDS011;7486;51.010;10.366;2023-11-21T04:44:45;7.57;;;5.13;;
14789;SDS011;7486;51.010;10.366;2023-11-21T04:47:30;7.50;;;4.83;;
14789;SDS011;7486;51.010;10.366;2023-11-21T04:50:16;5.57;;;4.90;;
14789;SDS011;7486;51.010;10.366;2023-11-21T04:53:02;11.63;;;6.13;;
14789;SDS011;7486;51.010;10.366;2023-11-21T04:55:48;10.33;;;6.30;;
14789;SDS011;7486;51.010;10.366;2023-11-21T04:58:33;63.27;;;8.57;;
14789;SDS011;7486;51.010;10.366;2023-11-21T05:01:19;32.30;;;6.03;;
14789;SDS011;7486;51.010;10.366;2023-11-21T05:04:05;43.53;;;5.93;;
14789;SDS011;7486;51.010;10.366;2023-11-21T05:06:50;19.40;;;5.40;;
14789;SDS011;7486;51.010;10.366;2023-11-21T05:09:36;55.93;;;7.23;;
14789;SDS011;7486;51.010;10.366;2023-11-21T05:12:21;35.40;;;6.27;;
14789;SDS011;7486;51.010;10.366;2023-11-21T05:15:07;30.10;;;4.63;;
14789;SDS011;7486;51.010;10.366;2023-11-21T05:17:53;16.30;;;3.83;;
14789;SDS011;7486;51.010;10.366;2023-11-21T05:20:39;15.27;;;3.77;;
14789;SDS011;7486;51.010;10.366;2023-11-21T05:23:24;30.47;;;3.83;;
14789;SDS011;7486;51.010;10.366;2023-11-21T05:26:10;26.00;;;3.57;;
14789;SDS011;7486;51.010;10.366;2023-11-21T05:28:56;47.50;;;9.23;;
14789;SDS011;7486;51.010;10.366;2023-11-21T05:31:42;72.93;;;16.07;;
14789;SDS011;7486;51.010;10.366;2023-11-21T05:34:27;45.43;;;14.47;;
14789;SDS011;7486;51.010;10.366;2023-11-21T05:37:12;43.37;;;13.10;;
14789;SDS011;7486;51.010;10.366;2023-11-21T05:39:58;54.03;;;11.50;;
14789;SDS011;7486;51.010;10.366;2023-11-21T05:42:44;13.43;;;8.23;;
14789;SDS011;7486;51.010;10.366;2023-11-21T05:45:29;43.17;;;4.63;;
14789;SDS011;7486;51.010;10.366;2023-11-21T05:48:15;39.93;;;4.60;;
14789;SDS011;7486;51.010;10.366;2023-11-21T05:51:01;18.73;;;3.63;;
14789;SDS011;7486;51.010;10.366;2023-11-21T05:53:46;36.40;;;3.80;;
14789;SDS011;7486;51.010;10.366;2023-11-21T05:56:31;57.63;;;4.73;;
14789;SDS011;7486;51.010;10.366;2023-11-21T05:59:17;19.03;;;3.90;;
14789;SDS011;7486;51.010;10.366;2023-11-21T06:02:07;28.57;;;3.90;;
14789;SDS011;7486;51.010;10.366;2023-11-21T06:04:52;38.67;;;4.17;;
14789;SDS011;7486;51.010;10.366;2023-11-21T06:07:38;25.67;;;4.17;;
14789;SDS011;7486;51.010;10.366;2023-11-21T06:10:23;37.87;;;3.90;;
14789;SDS011;7486;51.010;10.366;2023-11-21T06:13:10;13.73;;;3.90;;
14789;SDS011;7486;51.010;10.366;2023-11-21T06:15:56;8.73;;;3.60;;
14789;SDS011;7486;51.010;10.366;2023-11-21T06:18:42;20.30;;;4.50;;
14789;SDS011;7486;51.010;10.366;2023-11-21T06:21:28;10.40;;;4.00;;
14789;SDS011;7486;51.010;10.366;2023-11-21T06:24:13;47.83;;;5.20;;
14789;SDS011;7486;51.010;10.366;2023-11-21T06:26:59;11.50;;;3.70;;
14789;SDS011;7486;51.010;10.366;2023-11-21T06:29:44;18.77;;;4.13;;
14789;SDS011;7486;51.010;10.366;2023-11-21T06:32:29;21.23;;;3.40;;
14789;SDS011;7486;51.010;10.366;2023-11-21T06:35:15;14.43;;;3.17;;
14789;SDS011;7486;51.010;10.366;2023-11-21T06:38:02;17.97;;;2.70;;
14789;SDS011;7486;51.010;10.366;2023-11-21T06:40:47;20.87;;;2.90;;
14789;SDS011;7486;51.010;10.366;2023-11-21T06:43:33;20.00;;;2.80;;
14789;SDS011;7486;51.010;10.366;2023-11-21T06:46:18;8.90;;;2.30;;
14789;SDS011;7486;51.010;10.366;2023-11-21T06:49:04;15.27;;;2.33;;
14789;SDS011;7486;51.010;10.366;2023-11-21T06:51:49;11.83;;;2.77;;
14789;SDS011;7486;51.010;10.366;2023-11-21T06:54:36;6.73;;;2.20;;
14789;SDS011;7486;51.010;10.366;2023-11-21T06:57:25;10.33;;;2.57;;
14789;SDS011;7486;51.010;10.366;2023-11-21T07:00:11;8.33;;;2.73;;
14789;SDS011;7486;51.010;10.366;2023-11-21T07:02:56;14.83;;;2.30;;
14789;SDS011;7486;51.010;10.366;2023-11-21T07:05:42;14.50;;;3.00;;
14789;SDS011;7486;51.010;10.366;2023-11-21T07:08:27;30.77;;;3.27;;
14789;SDS011;7486;51.010;10.366;2023-11-21T07:11:13;8.90;;;2.40;;
14789;SDS011;7486;51.010;10.366;2023-11-21T07:13:58;8.03;;;2.50;;
14789;SDS011;7486;51.010;10.366;2023-11-21T07:16:44;6.07;;;2.53;;
14789;SDS011;7486;51.010;10.366;2023-11-21T07:19:29;13.43;;;4.27;;
14789;SDS011;7486;51.010;10.366;2023-11-21T07:22:15;13.73;;;4.90;;
14789;SDS011;7486;51.010;10.366;2023-11-21T07:25:01;6.73;;;3.43;;
14789;SDS011;7486;51.010;10.366;2023-11-21T07:27:46;4.10;;;3.40;;
14789;SDS011;7486;51.010;10.366;2023-11-21T07:30:32;15.37;;;3.90;;
14789;SDS011;7486;51.010;10.366;2023-11-21T07:33:17;11.03;;;3.50;;
14789;SDS011;7486;51.010;10.366;2023-11-21T07:36:03;15.47;;;4.03;;
14789;SDS011;7486;51.010;10.366;2023-11-21T07:38:48;10.07;;;4.30;;
14789;SDS011;7486;51.010;10.366;2023-11-21T07:41:34;35.47;;;4.87;;
14789;SDS011;7486;51.010;10.366;2023-11-21T07:44:19;33.90;;;5.50;;
14789;SDS011;7486;51.010;10.366;2023-11-21T07:47:05;26.77;;;5.50;;
14789;SDS011;7486;51.010;10.366;2023-11-21T07:49:51;34.23;;;4.37;;
14789;SDS011;7486;51.010;10.366;2023-11-21T07:52:38;10.53;;;4.17;;
14789;SDS011;7486;51.010;10.366;2023-11-21T07:55:23;12.00;;;3.90;;
14789;SDS011;7486;51.010;10.366;2023-11-21T07:58:09;15.23;;;4.80;;
14789;SDS011;7486;51.010;10.366;2023-11-21T08:00:54;29.87;;;4.63;;
14789;SDS011;7486;51.010;10.366;2023-11-21T08:03:40;27.07;;;6.20;;
14789;SDS011;7486;51.010;10.366;2023-11-21T08:06:25;15.83;;;4.30;;
14789;SDS011;7486;51.010;10.366;2023-11-21T08:09:11;42.30;;;6.17;;
14789;SDS011;7486;51.010;10.366;2023-11-21T08:11:56;17.83;;;5.47;;
14789;SDS011;7486;51.010;10.366;2023-11-21T08:14:41;13.83;;;5.87;;
14789;SDS011;7486;51.010;10.366;2023-11-21T08:17:27;11.67;;;5.50;;
14789;SDS011;7486;51.010;10.366;2023-11-21T08:20:12;6.90;;;4.00;;
14789;SDS011;7486;51.010;10.366;2023-11-21T08:22:58;5.83;;;4.50;;
14789;SDS011;7486;51.010;10.366;2023-11-21T08:25:44;6.80;;;4.10;;
14789;SDS011;7486;51.010;10.366;2023-11-21T08:28:30;6.03;;;3.97;;
14789;SDS011;7486;51.010;10.366;2023-11-21T08:31:15;6.17;;;3.83;;
14789;SDS011;7486;51.010;10.366;2023-11-21T08:34:01;4.43;;;3.57;;
14789;SDS011;7486;51.010;10.366;2023-11-21T08:36:46;5.30;;;3.70;;
14789;SDS011;7486;51.010;10.366;2023-11-21T08:39:32;4.43;;;3.43;;
14789;SDS011;7486;51.010;10.366;2023-11-21T08:42:18;4.77;;;3.90;;
14789;SDS011;7486;51.010;10.366;2023-11-21T08:45:04;5.50;;;3.90;;
14789;SDS011;7486;51.010;10.366;2023-11-21T08:47:50;4.27;;;3.53;;
14789;SDS011;7486;51.010;10.366;2023-11-21T08:50:36;4.50;;;3.70;;
14789;SDS011;7486;51.010;10.366;2023-11-21T08:53:21;4.97;;;4.33;;
14789;SDS011;7486;51.010;10.366;2023-11-21T08:56:07;5.80;;;4.37;;
14789;SDS011;7486;51.010;10.366;2023-11-21T08:58:57;6.43;;;4.40;;
14789;SDS011;7486;51.010;10.366;2023-11-21T09:01:42;5.80;;;4.97;;
14789;SDS011;7486;51.010;10.366;2023-11-21T09:04:28;4.97;;;4.20;;
14789;SDS011;7486;51.010;10.366;2023-11-21T09:07:14;8.17;;;4.77;;
14789;SDS011;7486;51.010;10.366;2023-11-21T09:09:59;5.50;;;4.43;;
14789;SDS011;7486;51.010;10.366;2023-11-21T09:12:45;6.90;;;4.90;;
14789;SDS011;7486;51.010;10.366;2023-11-21T09:15:30;5.90;;;5.00;;
14789;SDS011;7486;51.010;10.366;2023-11-21T09:18:16;8.57;;;4.83;;
14789;SDS011;7486;51.010;10.366;2023-11-21T09:21:01;5.70;;;4.70;;
14789;SDS011;7486;51.010;10.366;2023-11-21T09:23:47;8.53;;;5.17;;
14789;SDS011;7486;51.010;10.366;2023-11-21T09:26:33;4.67;;;4.27;;
14789;SDS011;7486;51.010;10.366;2023-11-21T09:29:19;6.10;;;4.57;;
14789;SDS011;7486;51.010;10.366;2023-11-21T09:32:05;6.97;;;4.90;;
14789;SDS011;7486;51.010;10.366;2023-11-21T09:34:51;8.50;;;5.77;;
14789;SDS011;7486;51.010;10.366;2023-11-21T09:37:36;7.43;;;5.37;;
14789;SDS011;7486;51.010;10.366;2023-11-21T09:40:22;7.97;;;5.77;;
14789;SDS011;7486;51.010;10.366;2023-11-21T09:43:09;7.30;;;6.00;;
14789;SDS011;7486;51.010;10.366;2023-11-21T09:46:01;7.57;;;5.90;;
14789;SDS011;7486;51.010;10.366;2023-11-21T09:48:48;9.43;;;6.27;;
14789;SDS011;7486;51.010;10.366;2023-11-21T09:51:36;7.70;;;6.20;;
14789;SDS011;7486;51.010;10.366;2023-11-21T09:54:21;10.27;;;6.90;;
14789;SDS011;7486;51.010;10.366;2023-11-21T09:57:07;9.90;;;6.63;;
14789;SDS011;7486;51.010;10.366;2023-11-21T09:59:53;7.97;;;6.67;;
14789;SDS011;7486;51.010;10.366;2023-11-21T10:02:40;8.73;;;6.63;;
14789;SDS011;7486;51.010;10.366;2023-11-21T10:05:26;8.93;;;7.13;;
14789;SDS011;7486;51.010;10.366;2023-11-21T10:08:13;9.03;;;6.77;;
14789;SDS011;7486;51.010;10.366;2023-11-21T10:10:59;9.63;;;7.47;;
14789;SDS011;7486;51.010;10.366;2023-11-21T10:13:48;12.43;;;8.00;;
14789;SDS011;7486;51.010;10.366;2023-11-21T10:16:36;11.10;;;7.57;;
14789;SDS011;7486;51.010;10.366;2023-11-21T10:19:23;9.33;;;7.33;;
14789;SDS011;7486;51.010;10.366;2023-11-21T10:22:09;8.37;;;7.57;;
14789;SDS011;7486;51.010;10.366;2023-11-21T10:24:55;9.47;;;7.40;;
14789;SDS011;7486;51.010;10.366;2023-11-21T10:27:41;10.77;;;8.07;;
14789;SDS011;7486;51.010;10.366;2023-11-21T10:30:27;9.93;;;8.70;;
14789;SDS011;7486;51.010;10.366;2023-11-21T10:33:17;15.47;;;12.63;;
14789;SDS011;7486;51.010;10.366;2023-11-21T10:36:02;10.80;;;9.67;;
14789;SDS011;7486;51.010;10.366;2023-11-21T10:38:48;10.47;;;7.97;;
14789;SDS011;7486;51.010;10.366;2023-11-21T10:41:34;9.53;;;7.87;;
14789;SDS011;7486;51.010;10.366;2023-11-21T10:44:19;12.13;;;9.40;;
14789;SDS011;7486;51.010;10.366;2023-11-21T10:47:06;12.10;;;9.13;;
14789;SDS011;7486;51.010;10.366;2023-11-21T10:49:53;10.90;;;8.97;;
14789;SDS011;7486;51.010;10.366;2023-11-21T10:52:42;11.07;;;7.90;;
14789;SDS011;7486;51.010;10.366;2023-11-21T10:55:30;10.87;;;8.63;;
14789;SDS011;7486;51.010;10.366;2023-11-21T10:58:16;11.63;;;7.97;;
14789;SDS011;7486;51.010;10.366;2023-11-21T11:01:02;10.23;;;8.10;;
14789;SDS011;7486;51.010;10.366;2023-11-21T11:03:51;11.00;;;8.03;;
14789;SDS011;7486;51.010;10.366;2023-11-21T11:06:37;12.77;;;9.10;;
14789;SDS011;7486;51.010;10.366;2023-11-21T11:09:23;11.83;;;8.57;;
14789;SDS011;7486;51.010;10.366;2023-11-21T11:12:09;13.37;;;8.67;;
14789;SDS011;7486;51.010;10.366;2023-11-21T11:14:54;12.47;;;8.67;;
14789;SDS011;7486;51.010;10.366;2023-11-21T11:17:41;11.10;;;8.87;;
14789;SDS011;7486;51.010;10.366;2023-11-21T11:20:30;12.30;;;8.90;;
14789;SDS011;7486;51.010;10.366;2023-11-21T11:35:22;13.07;;;9.13;;
14789;SDS011;7486;51.010;10.366;2023-11-21T11:38:11;17.00;;;12.97;;
14789;SDS011;7486;51.010;10.366;2023-11-21T11:40:57;15.47;;;10.97;;
14789;SDS011;7486;51.010;10.366;2023-11-21T11:43:47;14.63;;;10.23;;
14789;SDS011;7486;51.010;10.366;2023-11-21T11:46:42;14.57;;;12.63;;
14789;SDS011;7486;51.010;10.366;2023-11-21T11:49:29;12.73;;;10.53;;
14789;SDS011;7486;51.010;10.366;2023-11-21T11:52:33;12.83;;;9.73;;
14789;SDS011;7486;51.010;10.366;2023-11-21T11:55:20;16.70;;;11.63;;
14789;SDS011;7486;51.010;10.366;2023-11-21T11:58:08;15.90;;;11.43;;
14789;SDS011;7486;51.010;10.366;2023-11-21T12:00:53;18.57;;;13.00;;
14789;SDS011;7486;51.010;10.366;2023-11-21T12:03:39;14.10;;;11.33;;
14789;SDS011;7486;51.010;10.366;2023-11-21T12:06:33;11.40;;;8.83;;
14789;SDS011;7486;51.010;10.366;2023-11-21T12:09:19;9.83;;;7.87;;
14789;SDS011;7486;51.010;10.366;2023-11-21T12:12:05;11.23;;;7.73;;
14789;SDS011;7486;51.010;10.366;2023-11-21T12:14:51;10.70;;;8.23;;
14789;SDS011;7486;51.010;10.366;2023-11-21T12:17:37;9.63;;;7.30;;
14789;SDS011;7486;51.010;10.366;2023-11-21T12:20:23;9.10;;;6.20;;
14789;SDS011;7486;51.010;10.366;2023-11-21T12:23:09;9.57;;;8.57;;
14789;SDS011;7486;51.010;10.366;2023-11-21T12:25:55;10.83;;;7.00;;
14789;SDS011;7486;51.010;10.366;2023-11-21T12:28:42;7.40;;;6.60;;
14789;SDS011;7486;51.010;10.366;2023-11-21T12:31:28;9.57;;;7.10;;
14789;SDS011;7486;51.010;10.366;2023-11-21T12:34:15;8.47;;;6.43;;
14789;SDS011;7486;51.010;10.366;2023-11-21T12:37:01;10.23;;;7.23;;
14789;SDS011;7486;51.010;10.366;2023-11-21T12:39:47;8.07;;;6.70;;
14789;SDS011;7486;51.010;10.366;2023-11-21T12:42:32;8.30;;;6.50;;
14789;SDS011;7486;51.010;10.366;2023-11-21T12:48:07;6.90;;;5.60;;
14789;SDS011;7486;51.010;10.366;2023-11-21T12:50:54;6.13;;;5.10;;
14789;SDS011;7486;51.010;10.366;2023-11-21T12:53:40;6.13;;;5.43;;
14789;SDS011;7486;51.010;10.366;2023-11-21T12:56:26;5.23;;;4.73;;
14789;SDS011;7486;51.010;10.366;2023-11-21T12:59:12;4.85;;;3.90;;
14789;SDS011;7486;51.010;10.366;2023-11-21T13:02:01;4.33;;;3.33;;
14789;SDS011;7486;51.010;10.366;2023-11-21T13:04:53;3.70;;;3.40;;
14789;SDS011;7486;51.010;10.366;2023-11-21T13:07:42;3.03;;;2.73;;
14789;SDS011;7486;51.010;10.366;2023-11-21T13:10:31;3.20;;;2.90;;
14789;SDS011;7486;51.010;10.366;2023-11-21T13:13:18;3.60;;;3.30;;
14789;SDS011;7486;51.010;10.366;2023-11-21T13:16:08;6.33;;;5.73;;
14789;SDS011;7486;51.010;10.366;2023-11-21T13:18:54;5.03;;;4.30;;
14789;SDS011;7486;51.010;10.366;2023-11-21T13:21:40;5.03;;;4.63;;
14789;SDS011;7486;51.010;10.366;2023-11-21T13:24:26;3.90;;;3.53;;
14789;SDS011;7486;51.010;10.366;2023-11-21T13:27:11;3.57;;;3.27;;
14789;SDS011;7486;51.010;10.366;2023-11-21T13:29:57;3.93;;;3.50;;
14789;SDS011;7486;51.010;10.366;2023-11-21T13:32:43;3.70;;;3.30;;
14789;SDS011;7486;51.010;10.366;2023-11-21T13:35:32;3.63;;;3.33;;
14789;SDS011;7486;51.010;10.366;2023-11-21T13:38:23;4.50;;;3.43;;
14789;SDS011;7486;51.010;10.366;2023-11-21T13:41:09;3.77;;;3.47;;
14789;SDS011;7486;51.010;10.366;2023-11-21T13:43:54;3.93;;;3.53;;
14789;SDS011;7486;51.010;10.366;2023-11-21T13:46:43;3.63;;;3.30;;
14789;SDS011;7486;51.010;10.366;2023-11-21T13:49:28;3.23;;;2.93;;
14789;SDS011;7486;51.010;10.366;2023-11-21T13:52:16;3.50;;;3.20;;
14789;SDS011;7486;51.010;10.366;2023-11-21T13:55:01;4.03;;;3.57;;
14789;SDS011;7486;51.010;10.366;2023-11-21T13:57:47;6.53;;;4.70;;
14789;SDS011;7486;51.010;10.366;2023-11-21T14:00:32;7.33;;;6.03;;
14789;SDS011;7486;51.010;10.366;2023-11-21T14:03:18;7.43;;;5.77;;
14789;SDS011;7486;51.010;10.366;2023-11-21T14:06:03;5.47;;;4.73;;
14789;SDS011;7486;51.010;10.366;2023-11-21T14:08:50;3.93;;;3.37;;
14789;SDS011;7486;51.010;10.366;2023-11-21T14:11:37;3.67;;;3.03;;
14789;SDS011;7486;51.010;10.366;2023-11-21T14:14:32;3.10;;;2.80;;
14789;SDS011;7486;51.010;10.366;2023-11-21T14:17:19;5.07;;;4.50;;
14789;SDS011;7486;51.010;10.366;2023-11-21T14:20:07;3.00;;;2.73;;
14789;SDS011;7486;51.010;10.366;2023-11-21T14:23:01;2.10;;;1.90;;
14789;SDS011;7486;51.010;10.366;2023-11-21T14:26:01;1.37;;;1.27;;
14789;SDS011;7486;51.010;10.366;2023-11-21T14:28:50;2.97;;;1.80;;
14789;SDS011;7486;51.010;10.366;2023-11-21T14:31:40;1.70;;;1.60;;
14789;SDS011;7486;51.010;10.366;2023-11-21T14:34:26;2.60;;;2.40;;
14789;SDS011;7486;51.010;10.366;2023-11-21T14:37:16;2.53;;;2.33;;
14789;SDS011;7486;51.010;10.366;2023-11-21T14:40:01;3.60;;;2.60;;
14789;SDS011;7486;51.010;10.366;2023-11-21T14:42:47;4.60;;;3.57;;
14789;SDS011;7486;51.010;10.366;2023-11-21T14:45:34;3.20;;;2.90;;
14789;SDS011;7486;51.010;10.366;2023-11-21T14:48:20;3.70;;;3.40;;
14789;SDS011;7486;51.010;10.366;2023-11-21T14:51:06;4.20;;;3.80;;
14789;SDS011;7486;51.010;10.366;2023-11-21T14:53:51;4.10;;;3.70;;
14789;SDS011;7486;51.010;10.366;2023-11-21T14:56:40;4.47;;;4.03;;
14789;SDS011;7486;51.010;10.366;2023-11-21T14:59:27;5.00;;;4.50;;
14789;SDS011;7486;51.010;10.366;2023-11-21T15:02:16;5.63;;;4.83;;
14789;SDS011;7486;51.010;10.366;2023-11-21T15:05:04;4.97;;;4.50;;
14789;SDS011;7486;51.010;10.366;2023-11-21T15:07:50;4.50;;;4.10;;
14789;SDS011;7486;51.010;10.366;2023-11-21T15:10:36;5.50;;;5.00;;
14789;SDS011;7486;51.010;10.366;2023-11-21T15:13:21;6.53;;;5.37;;
14789;SDS011;7486;51.010;10.366;2023-11-21T15:16:07;6.43;;;5.73;;
14789;SDS011;7486;51.010;10.366;2023-11-21T15:18:53;6.63;;;5.93;;
14789;SDS011;7486;51.010;10.366;2023-11-21T15:21:38;7.27;;;6.40;;
14789;SDS011;7486;51.010;10.366;2023-11-21T15:24:26;7.17;;;6.30;;
14789;SDS011;7486;51.010;10.366;2023-11-21T15:27:15;6.90;;;6.20;;
14789;SDS011;7486;51.010;10.366;2023-11-21T15:30:12;8.97;;;7.13;;
14789;SDS011;7486;51.010;10.366;2023-11-21T15:33:03;9.53;;;7.77;;
14789;SDS011;7486;51.010;10.366;2023-11-21T15:35:49;10.30;;;7.90;;
14789;SDS011;7486;51.010;10.366;2023-11-21T15:38:36;8.33;;;7.50;;
14789;SDS011;7486;51.010;10.366;2023-11-21T15:41:21;8.23;;;7.20;;
14789;SDS011;7486;51.010;10.366;2023-11-21T15:44:07;9.87;;;8.13;;
14789;SDS011;7486;51.010;10.366;2023-11-21T15:46:53;9.33;;;7.97;;
14789;SDS011;7486;51.010;10.366;2023-11-21T15:49:39;8.90;;;7.47;;
14789;SDS011;7486;51.010;10.366;2023-11-21T15:52:25;9.13;;;7.67;;
14789;SDS011;7486;51.010;10.366;2023-11-21T15:55:10;8.63;;;7.37;;
14789;SDS011;7486;51.010;10.366;2023-11-21T15:57:55;8.03;;;6.70;;
14789;SDS011;7486;51.010;10.366;2023-11-21T16:00:41;9.33;;;8.27;;
14789;SDS011;7486;51.010;10.366;2023-11-21T16:03:26;11.17;;;8.70;;
14789;SDS011;7486;51.010;10.366;2023-11-21T16:06:12;8.90;;;7.97;;
14789;SDS011;7486;51.010;10.366;2023-11-21T16:08:57;8.97;;;7.70;;
14789;SDS011;7486;51.010;10.366;2023-11-21T16:11:42;7.17;;;6.47;;
14789;SDS011;7486;51.010;10.366;2023-11-21T16:14:31;7.77;;;6.30;;
14789;SDS011;7486;51.010;10.366;2023-11-21T16:17:18;8.13;;;6.97;;
14789;SDS011;7486;51.010;10.366;2023-11-21T16:20:05;7.57;;;6.63;;
14789;SDS011;7486;51.010;10.366;2023-11-21T16:22:50;7.80;;;7.00;;
14789;SDS011;7486;51.010;10.366;2023-11-21T16:25:36;7.90;;;7.10;;
14789;SDS011;7486;51.010;10.366;2023-11-21T16:28:22;7.97;;;7.17;;
14789;SDS011;7486;51.010;10.366;2023-11-21T16:31:07;7.37;;;6.47;;
14789;SDS011;7486;51.010;10.366;2023-11-21T16:33:54;8.53;;;6.57;;
14789;SDS011;7486;51.010;10.366;2023-11-21T16:36:42;8.17;;;7.17;;
14789;SDS011;7486;51.010;10.366;2023-11-21T16:39:27;8.20;;;7.03;;
14789;SDS011;7486;51.010;10.366;2023-11-21T16:42:13;8.17;;;6.83;;
14789;SDS011;7486;51.010;10.366;2023-11-21T16:44:58;8.37;;;7.00;;
14789;SDS011;7486;51.010;10.366;2023-11-21T16:47:44;8.10;;;7.03;;
14789;SDS011;7486;51.010;10.366;2023-11-21T16:50:30;8.93;;;7.50;;